createdAt,value
2023-01-10T00:00:35.664Z,6.00
2023-01-10T00:03:05.348Z,6.00
2023-01-10T00:05:33.555Z,6.00
2023-01-10T00:08:03.507Z,6.00
2023-01-10T00:10:34.745Z,6.00
2023-01-10T00:13:20.292Z,5.90
2023-01-10T00:15:48.750Z,5.90
2023-01-10T00:18:17.679Z,5.90
2023-01-10T00:20:46.841Z,6.00
2023-01-10T00:23:18.333Z,6.00
2023-01-10T00:25:48.458Z,6.00
2023-01-10T00:28:19.994Z,6.00
2023-01-10T00:30:59.849Z,6.00
2023-01-10T00:33:28.231Z,6.00
2023-01-10T00:35:57.026Z,6.00
2023-01-10T00:38:25.719Z,6.00
2023-01-10T00:40:55.372Z,6.00
2023-01-10T00:43:41.318Z,6.00
2023-01-10T00:46:10.066Z,6.00
2023-01-10T00:48:38.849Z,6.00
2023-01-10T00:51:07.330Z,6.00
2023-01-10T00:53:36.539Z,6.00
2023-01-10T00:56:07.444Z,6.10
2023-01-10T00:58:36.107Z,6.10
2023-01-10T01:01:05.640Z,6.00
2023-01-10T01:03:35.117Z,6.00
2023-01-10T01:06:07.132Z,6.00
2023-01-10T01:08:35.708Z,6.00
2023-01-10T01:11:05.388Z,6.00
2023-01-10T01:13:33.746Z,6.10
2023-01-10T01:16:02.522Z,6.00
2023-01-10T01:18:30.862Z,6.00
2023-01-10T01:21:03.291Z,6.00
2023-01-10T01:23:32.060Z,6.10
2023-01-10T01:26:00.688Z,6.00
2023-01-10T01:28:30.231Z,6.10
2023-01-10T01:30:58.511Z,6.10
2023-01-10T01:33:26.995Z,6.10
2023-01-10T01:35:55.184Z,6.10
2023-01-10T01:38:23.378Z,6.10
2023-01-10T01:40:51.768Z,6.10
2023-01-10T01:43:27.054Z,6.10
2023-01-10T01:46:00.736Z,6.10
2023-01-10T01:48:36.405Z,6.10
2023-01-10T01:51:11.699Z,6.10
2023-01-10T01:53:45.100Z,6.10
2023-01-10T01:56:18.888Z,6.10
2023-01-10T01:58:53.107Z,6.20
2023-01-10T02:01:24.190Z,6.10
2023-01-10T02:03:58.896Z,6.10
2023-01-10T02:06:27.432Z,6.20
2023-01-10T02:09:04.714Z,6.10
2023-01-10T02:11:33.609Z,6.20
2023-01-10T02:14:03.606Z,6.20
2023-01-10T02:16:33.393Z,6.20
2023-01-10T02:19:01.712Z,6.20
2023-01-10T02:22:19.122Z,6.20
2023-01-10T02:25:45.379Z,6.20
2023-01-10T02:28:58.266Z,6.20
2023-01-10T02:32:15.911Z,6.20
2023-01-10T02:35:00.192Z,6.20
2023-01-10T02:37:44.747Z,6.10
2023-01-10T02:40:23.567Z,6.10
2023-01-10T02:42:59.437Z,6.10
2023-01-10T02:45:32.518Z,6.10
2023-01-10T02:48:02.128Z,6.00
2023-01-10T02:50:46.384Z,6.00
2023-01-10T02:53:22.791Z,6.00
2023-01-10T02:56:34.170Z,6.00
2023-01-10T02:59:40.173Z,5.90
2023-01-10T03:02:24.958Z,5.90
2023-01-10T03:05:04.418Z,5.90
2023-01-10T03:07:39.861Z,5.90
2023-01-10T03:10:15.901Z,5.90
2023-01-10T03:12:50.312Z,5.90
2023-01-10T03:15:22.008Z,5.80
2023-01-10T03:17:55.960Z,5.80
2023-01-10T03:20:26.350Z,5.80
2023-01-10T03:22:57.518Z,5.80
2023-01-10T03:25:32.670Z,5.80
2023-01-10T03:28:07.327Z,5.80
2023-01-10T03:30:45.063Z,5.80
2023-01-10T03:33:17.543Z,5.80
2023-01-10T03:36:04.274Z,5.90
2023-01-10T03:38:44.865Z,5.80
2023-01-10T03:41:18.115Z,5.80
2023-01-10T03:44:26.128Z,5.80
2023-01-10T03:47:01.189Z,5.80
2023-01-10T03:49:31.011Z,5.80
2023-01-10T03:52:01.999Z,5.80
2023-01-10T03:54:31.496Z,5.80
2023-01-10T03:57:02.587Z,5.80
2023-01-10T03:59:32.561Z,5.80
2023-01-10T04:02:01.038Z,5.80
2023-01-10T04:04:29.297Z,5.70
2023-01-10T04:06:57.655Z,5.70
2023-01-10T04:09:28.274Z,5.70
2023-01-10T04:11:56.662Z,5.70
2023-01-10T04:14:24.950Z,5.70
2023-01-10T04:16:53.571Z,5.70
2023-01-10T04:19:21.919Z,5.70
2023-01-10T04:21:51.062Z,5.60
2023-01-10T04:24:19.406Z,5.60
2023-01-10T04:26:49.226Z,5.60
2023-01-10T04:29:17.501Z,5.60
2023-01-10T04:31:46.842Z,5.60
2023-01-10T04:34:15.607Z,5.60
2023-01-10T04:36:44.671Z,5.60
2023-01-10T04:39:14.240Z,5.50
2023-01-10T04:41:42.774Z,5.50
2023-01-10T04:44:12.812Z,5.50
2023-01-10T04:46:41.087Z,5.50
2023-01-10T04:49:10.945Z,5.50
2023-01-10T04:51:39.557Z,5.50
2023-01-10T04:54:10.808Z,5.50
2023-01-10T04:56:39.951Z,5.50
2023-01-10T04:59:08.282Z,5.50
2023-01-10T05:01:39.076Z,5.50
2023-01-10T05:04:08.349Z,5.50
2023-01-10T05:06:37.046Z,5.60
2023-01-10T05:09:05.452Z,5.50
2023-01-10T05:11:33.930Z,5.50
2023-01-10T05:14:02.060Z,5.60
2023-01-10T05:16:31.593Z,5.60
2023-01-10T05:19:01.466Z,5.60
2023-01-10T05:21:30.045Z,5.50
2023-01-10T05:23:58.418Z,5.50
2023-01-10T05:26:26.657Z,5.50
2023-01-10T05:28:55.054Z,5.50
2023-01-10T05:31:23.245Z,5.50
2023-01-10T05:33:53.080Z,5.50
2023-01-10T05:36:22.915Z,5.50
2023-01-10T05:38:51.179Z,5.40
2023-01-10T05:41:19.718Z,5.40
2023-01-10T05:43:48.104Z,5.40
2023-01-10T05:46:16.712Z,5.30
2023-01-10T05:48:45.278Z,5.40
2023-01-10T05:51:13.653Z,5.40
2023-01-10T05:53:43.543Z,5.40
2023-01-10T05:56:11.914Z,5.30
2023-01-10T05:58:40.195Z,5.40
2023-01-10T06:01:09.449Z,5.40
2023-01-10T06:03:38.077Z,5.40
2023-01-10T06:06:07.107Z,5.40
2023-01-10T06:08:37.122Z,5.40
2023-01-10T06:11:07.425Z,5.40
2023-01-10T06:13:35.800Z,5.40
2023-01-10T06:16:04.334Z,5.50
2023-01-10T06:18:32.615Z,5.50
2023-01-10T06:21:01.132Z,5.50
2023-01-10T06:23:30.802Z,5.50
2023-01-10T06:25:59.027Z,5.50
2023-01-10T06:28:31.063Z,5.50
2023-01-10T06:30:59.312Z,5.50
2023-01-10T06:33:27.867Z,5.50
2023-01-10T06:35:56.136Z,5.50
2023-01-10T06:38:24.429Z,5.40
2023-01-10T06:40:52.672Z,5.50
2023-01-10T06:43:21.344Z,5.40
2023-01-10T06:45:50.991Z,5.40
2023-01-10T06:48:19.160Z,5.40
2023-01-10T06:50:47.479Z,5.40
2023-01-10T06:53:15.765Z,5.40
2023-01-10T06:55:43.929Z,5.40
2023-01-10T06:58:12.046Z,5.40
2023-01-10T07:00:40.379Z,5.40
2023-01-10T07:03:11.034Z,5.40
2023-01-10T07:05:39.286Z,5.40
2023-01-10T07:08:07.509Z,5.40
2023-01-10T07:10:35.754Z,5.40
2023-01-10T07:13:03.919Z,5.40
2023-01-10T07:15:32.155Z,5.40
2023-01-10T07:18:00.779Z,5.40
2023-01-10T07:20:40.441Z,5.40
2023-01-10T07:23:08.654Z,5.40
2023-01-10T07:25:36.901Z,5.30
2023-01-10T07:28:06.953Z,5.30
2023-01-10T07:30:36.030Z,5.30
2023-01-10T07:33:06.297Z,5.20
2023-01-10T07:35:35.951Z,5.20
2023-01-10T07:38:04.246Z,5.20
2023-01-10T07:40:32.699Z,5.20
2023-01-10T07:43:02.762Z,5.30
2023-01-10T07:45:32.498Z,5.30
2023-01-10T07:48:02.804Z,5.30
2023-01-10T07:50:34.265Z,5.30
2023-01-10T07:53:08.311Z,5.30
2023-01-10T07:55:39.604Z,5.40
2023-01-10T07:58:09.337Z,5.40
2023-01-10T08:00:37.686Z,5.50
2023-01-10T08:03:06.434Z,5.50
2023-01-10T08:05:34.894Z,5.60
2023-01-10T08:08:07.813Z,5.60
2023-01-10T08:10:38.856Z,5.60
2023-01-10T08:13:18.269Z,5.60
2023-01-10T08:15:50.246Z,5.60
2023-01-10T08:18:21.636Z,5.60
2023-01-10T08:20:51.014Z,5.70
2023-01-10T08:23:21.678Z,5.80
2023-01-10T08:25:51.573Z,5.70
2023-01-10T08:28:20.439Z,5.80
2023-01-10T08:30:50.494Z,5.80
2023-01-10T08:33:19.440Z,5.80
2023-01-10T08:35:47.818Z,5.80
2023-01-10T08:38:17.256Z,5.90
2023-01-10T08:40:46.820Z,5.90
2023-01-10T08:43:16.149Z,5.90
2023-01-10T08:45:44.452Z,5.90
2023-01-10T08:48:13.068Z,5.90
2023-01-10T08:50:41.307Z,5.90
2023-01-10T08:53:09.988Z,6.00
2023-01-10T08:55:39.484Z,6.00
2023-01-10T08:58:10.506Z,6.00
2023-01-10T09:00:38.976Z,6.10
2023-01-10T09:03:10.561Z,6.10
2023-01-10T09:05:40.298Z,6.10
2023-01-10T09:08:08.785Z,6.20
2023-01-10T09:10:37.458Z,6.20
2023-01-10T09:13:05.971Z,6.20
2023-01-10T09:15:39.688Z,6.20
2023-01-10T09:18:09.281Z,6.20
2023-01-10T09:20:41.534Z,6.30
2023-01-10T09:23:12.674Z,6.30
2023-01-10T09:25:41.144Z,6.30
2023-01-10T09:28:09.368Z,6.30
2023-01-10T09:30:39.117Z,6.40
2023-01-10T09:33:08.781Z,6.40
2023-01-10T09:35:39.453Z,6.40
2023-01-10T09:38:10.983Z,6.40
2023-01-10T09:40:56.950Z,6.50
2023-01-10T09:43:38.847Z,6.60
2023-01-10T09:46:16.399Z,6.60
2023-01-10T09:48:54.303Z,6.60
2023-01-10T09:51:35.588Z,6.70
2023-01-10T09:54:12.680Z,6.70
2023-01-10T09:56:41.806Z,6.70
2023-01-10T09:59:19.999Z,6.80
2023-01-10T10:01:54.051Z,6.80
2023-01-10T10:04:28.871Z,6.80
2023-01-10T10:06:57.269Z,6.80
2023-01-10T10:09:29.058Z,6.80
2023-01-10T10:12:27.501Z,6.90
2023-01-10T10:15:14.742Z,6.90
2023-01-10T10:17:52.277Z,7.00
2023-01-10T10:20:30.591Z,6.90
2023-01-10T10:23:17.353Z,6.90
2023-01-10T10:26:02.863Z,6.90
2023-01-10T10:29:24.104Z,6.90
2023-01-10T10:32:36.615Z,6.80
2023-01-10T10:35:14.310Z,6.80
2023-01-10T10:37:46.582Z,6.80
2023-01-10T10:40:20.987Z,6.70
2023-01-10T10:42:51.903Z,6.60
2023-01-10T10:45:25.528Z,6.60
2023-01-10T10:48:02.304Z,6.50
2023-01-10T10:50:35.428Z,6.50
2023-01-10T10:53:05.313Z,6.40
2023-01-10T10:55:38.979Z,6.30
2023-01-10T10:58:11.209Z,6.30
2023-01-10T11:00:41.815Z,6.30
2023-01-10T11:03:34.118Z,6.30
2023-01-10T11:06:03.952Z,6.40
2023-01-10T11:08:33.026Z,6.40
2023-01-10T11:11:08.052Z,6.30
2023-01-10T11:13:48.442Z,6.40
2023-01-10T11:16:32.099Z,6.40
2023-01-10T11:19:19.196Z,6.50
2023-01-10T11:21:54.023Z,6.50
2023-01-10T11:24:28.487Z,6.40
2023-01-10T11:27:00.501Z,6.40
2023-01-10T11:29:38.547Z,6.40
2023-01-10T11:32:15.119Z,6.30
2023-01-10T11:34:50.598Z,6.30
2023-01-10T11:37:25.313Z,6.20
2023-01-10T11:40:17.827Z,6.20
2023-01-10T11:42:47.603Z,6.30
2023-01-10T11:45:32.550Z,6.50
2023-01-10T11:48:34.195Z,6.70
2023-01-10T11:51:21.138Z,7.00
2023-01-10T11:53:56.043Z,7.20
2023-01-10T11:56:27.978Z,7.10
2023-01-10T11:58:58.168Z,7.10
2023-01-10T12:01:34.476Z,7.10
2023-01-10T12:04:03.375Z,7.20
2023-01-10T12:06:32.257Z,7.20
2023-01-10T12:09:02.004Z,7.40
2023-01-10T12:11:35.713Z,7.50
2023-01-10T12:14:03.975Z,7.50
2023-01-10T12:16:34.465Z,7.50
2023-01-10T12:19:05.436Z,7.50
2023-01-10T12:21:42.072Z,7.50
2023-01-10T12:24:19.273Z,7.50
2023-01-10T12:26:51.037Z,7.50
2023-01-10T12:29:27.038Z,7.50
2023-01-10T12:31:58.091Z,7.50
2023-01-10T12:34:33.551Z,7.40
2023-01-10T12:37:10.751Z,7.30
2023-01-10T12:39:44.573Z,7.30
2023-01-10T12:42:43.137Z,7.20
2023-01-10T12:45:17.447Z,7.30
2023-01-10T12:48:00.447Z,7.30
2023-01-10T12:50:34.791Z,7.40
2023-01-10T12:53:12.628Z,7.30
2023-01-10T12:55:45.407Z,7.40
2023-01-10T12:58:23.496Z,7.50
2023-01-10T13:01:19.151Z,7.40
2023-01-10T13:37:51.960Z,7.20
2023-01-10T15:30:01.589Z,6.90
2023-01-10T15:42:35.381Z,6.70
2023-01-10T15:45:29.528Z,6.70
2023-01-10T15:59:26.434Z,6.50
2023-01-10T16:14:54.043Z,6.40
2023-01-10T16:30:35.380Z,6.20
2023-01-10T16:33:12.750Z,6.20
2023-01-10T16:36:53.269Z,6.10
2023-01-10T16:39:24.759Z,6.10
2023-01-10T16:42:10.334Z,6.00
2023-01-10T16:44:56.409Z,6.00
2023-01-10T16:47:39.626Z,5.90
2023-01-10T17:08:54.789Z,5.60
2023-01-10T17:11:27.992Z,5.70
2023-01-10T17:13:56.666Z,5.70
2023-01-10T17:16:25.637Z,5.70
2023-01-10T17:18:54.719Z,5.70
2023-01-10T17:21:25.169Z,5.70
2023-01-10T17:23:54.957Z,5.70
2023-01-10T17:26:24.229Z,5.70
2023-01-10T18:31:59.395Z,5.90
2023-01-10T18:34:27.625Z,6.00
2023-01-10T18:36:56.056Z,6.00
